createdAt,value
2018-09-24T00:02:57.072Z,0.17
2018-09-24T00:06:01.636Z,0.10
2018-09-24T00:09:09.033Z,0.13
2018-09-24T00:12:13.420Z,0.20
2018-09-24T00:15:17.801Z,0.10
2018-09-24T00:18:22.144Z,0.30
2018-09-24T00:21:26.620Z,0.30
2018-09-24T00:24:30.991Z,0.20
2018-09-24T00:27:35.448Z,0.40
2018-09-24T00:30:39.892Z,0.30
2018-09-24T00:33:44.639Z,0.40
2018-09-24T00:36:49.044Z,0.30
2018-09-24T00:39:53.401Z,0.20
2018-09-24T00:42:57.863Z,0.37
2018-09-24T00:46:03.513Z,0.50
2018-09-24T00:49:07.861Z,0.50
2018-09-24T00:52:13.020Z,0.50
2018-09-24T00:55:17.338Z,0.53
2018-09-24T00:58:21.711Z,0.40
2018-09-24T01:01:26.016Z,0.40
2018-09-24T01:04:30.445Z,0.70
2018-09-24T01:07:34.843Z,0.30
2018-09-24T01:10:39.353Z,0.40
2018-09-24T01:13:43.681Z,0.50
2018-09-24T01:20:19.793Z,0.40
2018-09-24T01:23:24.120Z,0.40
2018-09-24T01:26:28.411Z,0.60
2018-09-24T01:29:32.735Z,0.50
2018-09-24T01:32:37.038Z,0.50
2018-09-24T01:35:41.350Z,0.60
2018-09-24T01:38:45.677Z,0.87
2018-09-24T01:41:50.024Z,0.63
2018-09-24T01:44:54.385Z,0.37
2018-09-24T01:47:58.705Z,0.30
2018-09-24T01:51:04.004Z,0.15
2018-09-24T01:54:08.621Z,0.20
2018-09-24T01:57:14.576Z,0.40
2018-09-24T02:00:18.919Z,0.30
2018-09-24T02:03:26.153Z,0.20
2018-09-24T02:06:30.488Z,0.30
2018-09-24T02:09:34.832Z,0.33
2018-09-24T02:12:39.136Z,0.50
2018-09-24T02:15:43.452Z,0.20
2018-09-24T02:18:48.155Z,0.20
2018-09-24T02:21:52.509Z,0.27
2018-09-24T02:25:02.939Z,0.10
2018-09-24T02:28:07.503Z,0.20
2018-09-24T02:31:11.839Z,0.30
2018-09-24T02:34:16.188Z,0.30
2018-09-24T02:37:20.512Z,0.30
2018-09-24T02:40:25.422Z,0.30
2018-09-24T02:43:29.720Z,0.30
2018-09-24T02:46:35.824Z,0.20
2018-09-24T02:49:40.144Z,0.50
2018-09-24T02:52:44.636Z,0.30
2018-09-24T02:55:49.068Z,0.27
2018-09-24T02:58:53.420Z,0.20
2018-09-24T03:01:57.765Z,0.20
2018-09-24T03:05:02.086Z,0.30
2018-09-24T03:08:10.996Z,0.20
2018-09-24T03:11:15.318Z,0.20
2018-09-24T03:14:26.255Z,0.30
2018-09-24T03:17:30.721Z,0.30
2018-09-24T03:20:40.391Z,0.30
2018-09-24T03:23:45.023Z,0.20
2018-09-24T03:26:49.482Z,0.47
2018-09-24T03:29:53.801Z,0.40
2018-09-24T03:32:58.113Z,0.40
2018-09-24T03:36:02.435Z,0.30
2018-09-24T03:39:07.504Z,0.30
2018-09-24T03:42:11.924Z,0.23
2018-09-24T03:45:16.244Z,0.30
2018-09-24T03:48:20.669Z,0.30
2018-09-24T03:51:25.001Z,0.50
2018-09-24T03:54:29.329Z,0.23
2018-09-24T03:57:33.797Z,0.30
2018-09-24T04:00:38.140Z,0.30
2018-09-24T04:03:42.508Z,0.30
2018-09-24T04:06:52.214Z,0.20
2018-09-24T04:10:01.949Z,0.20
2018-09-24T04:13:11.400Z,0.30
2018-09-24T04:16:20.909Z,0.20
2018-09-24T04:19:30.694Z,0.40
2018-09-24T04:22:40.248Z,0.10
2018-09-24T04:25:49.754Z,0.30
2018-09-24T04:29:04.816Z,0.37
2018-09-24T04:32:14.529Z,0.40
2018-09-24T04:35:24.289Z,0.40
2018-09-24T04:38:33.904Z,0.50
2018-09-24T04:41:43.460Z,0.40
2018-09-24T04:44:52.957Z,0.67
2018-09-24T04:48:02.987Z,0.53
2018-09-24T04:51:12.591Z,0.50
2018-09-24T04:54:22.245Z,0.40
2018-09-24T04:57:31.765Z,0.50
2018-09-24T05:00:41.323Z,0.43
2018-09-24T05:03:50.997Z,0.57
2018-09-24T05:07:00.739Z,0.40
2018-09-24T05:10:10.576Z,0.30
2018-09-24T05:13:20.012Z,0.57
2018-09-24T05:16:29.549Z,0.50
2018-09-24T05:19:39.127Z,0.53
2018-09-24T05:22:48.551Z,0.47
2018-09-24T05:25:58.101Z,0.67
2018-09-24T05:29:07.496Z,0.40
2018-09-24T05:32:17.189Z,0.60
2018-09-24T05:35:26.748Z,0.50
2018-09-24T05:38:36.453Z,0.67
2018-09-24T05:41:46.096Z,0.53
2018-09-24T05:44:55.921Z,0.77
2018-09-24T05:48:05.713Z,0.77
2018-09-24T05:51:15.180Z,0.67
2018-09-24T05:54:24.872Z,0.87
2018-09-24T05:57:34.493Z,0.90
2018-09-24T06:00:44.120Z,0.60
2018-09-24T06:03:53.680Z,0.40
2018-09-24T06:07:03.440Z,0.60
2018-09-24T06:10:12.876Z,0.60
2018-09-24T06:13:22.350Z,0.70
2018-09-24T06:16:32.204Z,0.67
2018-09-24T06:19:41.817Z,0.63
2018-09-24T06:22:51.423Z,0.60
2018-09-24T06:26:01.024Z,0.60
2018-09-24T06:29:10.615Z,0.50
2018-09-24T06:32:20.380Z,0.68
2018-09-24T06:35:29.941Z,0.70
2018-09-24T06:38:39.846Z,0.60
2018-09-24T06:41:49.429Z,0.70
2018-09-24T06:44:58.939Z,0.57
2018-09-24T06:48:08.396Z,0.57
2018-09-24T06:51:18.088Z,0.60
2018-09-24T06:54:27.680Z,0.63
2018-09-24T06:57:37.399Z,0.40
2018-09-24T07:00:46.927Z,0.47
2018-09-24T07:03:56.561Z,0.70
2018-09-24T07:07:06.353Z,0.53
2018-09-24T07:10:16.154Z,0.53
2018-09-24T07:13:25.808Z,0.40
2018-09-24T07:16:35.559Z,0.50
2018-09-24T07:19:45.070Z,0.50
2018-09-24T07:22:54.548Z,1.00
2018-09-24T07:26:04.015Z,0.63
2018-09-24T07:29:13.712Z,0.50
2018-09-24T07:32:23.570Z,0.50
2018-09-24T07:35:33.188Z,0.80
2018-09-24T07:38:43.091Z,0.60
2018-09-24T07:41:52.710Z,0.47
2018-09-24T07:45:02.450Z,0.50
2018-09-24T07:48:12.202Z,0.63
2018-09-24T07:51:21.806Z,0.70
2018-09-24T07:54:31.486Z,0.60
2018-09-24T07:57:41.009Z,0.97
2018-09-24T08:00:50.737Z,0.57
2018-09-24T08:04:00.516Z,0.60
2018-09-24T08:07:10.214Z,0.40
2018-09-24T08:10:19.837Z,0.43
2018-09-24T08:13:29.404Z,0.43
2018-09-24T08:16:38.961Z,0.63
2018-09-24T08:19:48.672Z,0.37
2018-09-24T08:22:58.265Z,0.50
2018-09-24T08:26:07.606Z,0.50
2018-09-24T08:29:17.299Z,0.57
2018-09-24T08:32:27.284Z,0.53
2018-09-24T08:35:36.768Z,0.63
2018-09-24T08:38:46.455Z,0.37
2018-09-24T08:41:56.028Z,0.50
2018-09-24T08:45:05.462Z,0.50
2018-09-24T08:48:14.899Z,0.40
2018-09-24T08:51:24.630Z,0.40
2018-09-24T08:54:34.385Z,0.40
2018-09-24T08:57:44.240Z,0.37
2018-09-24T09:00:53.877Z,0.50
2018-09-24T09:04:04.025Z,0.40
2018-09-24T09:07:13.708Z,0.60
2018-09-24T09:10:23.283Z,0.50
2018-09-24T09:13:32.838Z,0.53
2018-09-24T09:16:42.433Z,0.80
2018-09-24T09:19:51.984Z,0.33
2018-09-24T09:23:01.829Z,0.60
2018-09-24T09:26:11.546Z,0.57
2018-09-24T09:29:21.188Z,0.50
2018-09-24T09:32:30.706Z,0.40
2018-09-24T09:35:40.240Z,0.30
2018-09-24T09:38:49.966Z,0.43
2018-09-24T09:41:59.609Z,0.70
2018-09-24T09:45:09.212Z,0.63
2018-09-24T09:48:18.920Z,0.40
2018-09-24T09:51:28.406Z,0.30
2018-09-24T09:54:38.079Z,0.30
2018-09-24T09:57:47.584Z,0.57
2018-09-24T10:00:57.004Z,0.50
2018-09-24T10:04:06.475Z,0.63
2018-09-24T10:07:16.005Z,0.33
2018-09-24T10:10:25.547Z,0.47
2018-09-24T10:13:35.053Z,0.40
2018-09-24T10:16:44.872Z,0.60
2018-09-24T10:19:54.504Z,0.37
2018-09-24T10:23:04.099Z,0.30
2018-09-24T10:26:14.114Z,0.33
2018-09-24T10:29:23.815Z,0.57
2018-09-24T10:32:33.515Z,0.57
2018-09-24T10:35:43.061Z,0.40
2018-09-24T10:38:52.600Z,0.40
2018-09-24T10:42:02.118Z,0.80
2018-09-24T10:45:11.770Z,0.70
2018-09-24T10:48:21.389Z,0.40
2018-09-24T10:51:31.009Z,0.50
2018-09-24T10:54:40.592Z,0.50
2018-09-24T10:57:50.160Z,0.50
2018-09-24T11:00:59.840Z,0.70
2018-09-24T11:04:09.371Z,0.62
2018-09-24T11:07:18.876Z,0.70
2018-09-24T11:10:28.404Z,0.30
2018-09-24T11:13:37.968Z,0.60
2018-09-24T11:16:47.911Z,0.80
2018-09-24T11:19:57.151Z,1.80
2018-09-24T11:23:06.793Z,1.00
2018-09-24T11:29:26.105Z,1.07
2018-09-24T11:32:35.533Z,0.60
2018-09-24T11:35:44.960Z,0.70
2018-09-24T11:38:54.628Z,0.60
2018-09-24T11:42:04.230Z,0.60
2018-09-24T11:45:13.609Z,0.70
2018-09-24T11:48:22.979Z,0.20
2018-09-24T11:51:32.701Z,0.40
2018-09-24T11:54:42.223Z,0.37
2018-09-24T11:57:51.845Z,0.47
2018-09-24T12:01:01.559Z,0.40
2018-09-24T12:04:11.055Z,0.20
2018-09-24T12:07:20.627Z,0.50
2018-09-24T12:10:30.134Z,0.50
2018-09-24T12:13:39.871Z,0.40
2018-09-24T12:16:49.448Z,0.40
2018-09-24T12:19:58.985Z,0.60
2018-09-24T12:23:08.794Z,0.40
2018-09-24T12:26:18.483Z,0.43
2018-09-24T12:29:28.251Z,0.50
2018-09-24T12:32:38.168Z,0.57
2018-09-24T12:35:51.560Z,0.40
2018-09-24T12:39:01.176Z,0.30
2018-09-24T12:42:10.859Z,0.40
2018-09-24T12:45:20.839Z,0.50
2018-09-24T12:48:30.675Z,0.50
2018-09-24T12:51:40.276Z,0.60
2018-09-24T12:54:49.819Z,0.30
2018-09-24T12:57:59.568Z,0.37
2018-09-24T13:01:09.279Z,0.50
2018-09-24T13:04:18.991Z,0.47
2018-09-24T13:07:28.626Z,0.70
2018-09-24T13:10:38.001Z,0.50
2018-09-24T13:13:47.579Z,0.50
2018-09-24T13:16:57.318Z,0.40
2018-09-24T13:20:07.038Z,0.60
2018-09-24T13:23:16.687Z,0.33
2018-09-24T13:26:26.316Z,0.50
2018-09-24T13:29:35.800Z,0.27
2018-09-24T13:32:45.543Z,0.30
2018-09-24T13:35:55.080Z,0.43
2018-09-24T13:39:04.726Z,0.53
2018-09-24T13:42:14.507Z,0.43
2018-09-24T13:45:23.999Z,0.57
2018-09-24T13:48:33.412Z,0.50
2018-09-24T13:51:43.333Z,0.40
2018-09-24T13:54:53.084Z,0.30
2018-09-24T13:58:04.155Z,0.50
2018-09-24T14:01:13.757Z,0.20
2018-09-24T14:04:23.408Z,0.40
2018-09-24T14:07:33.078Z,0.30
2018-09-24T14:10:42.698Z,0.43
2018-09-24T14:13:52.180Z,0.30
2018-09-24T14:17:01.719Z,0.30
2018-09-24T14:20:11.584Z,0.53
2018-09-24T14:23:21.473Z,0.60
2018-09-24T14:26:32.563Z,0.37
2018-09-24T14:29:42.862Z,0.40
2018-09-24T14:32:52.592Z,0.30
2018-09-24T14:36:02.424Z,0.30
2018-09-24T14:39:14.123Z,0.93
2018-09-24T14:42:23.716Z,0.40
2018-09-24T14:45:33.573Z,0.50
2018-09-24T14:48:43.130Z,0.40
2018-09-24T14:51:53.053Z,0.50
2018-09-24T14:55:03.431Z,0.67
2018-09-24T14:58:14.261Z,0.40
2018-09-24T15:01:23.767Z,0.83
2018-09-24T15:04:33.352Z,0.93
2018-09-24T15:07:43.190Z,0.77
2018-09-24T15:10:53.139Z,0.60
2018-09-24T15:14:02.930Z,0.63
2018-09-24T15:17:12.750Z,0.50
2018-09-24T15:20:22.462Z,0.63
2018-09-24T15:23:32.116Z,0.63
2018-09-24T15:26:41.932Z,0.40
2018-09-24T15:29:51.773Z,0.57
2018-09-24T15:33:01.428Z,0.50
2018-09-24T15:36:11.009Z,0.40
2018-09-24T15:39:20.925Z,0.57
2018-09-24T15:42:30.817Z,0.40
2018-09-24T15:45:41.303Z,0.53
2018-09-24T15:48:50.824Z,0.40
2018-09-24T15:52:00.251Z,0.30
2018-09-24T15:55:10.230Z,0.50
2018-09-24T15:58:20.379Z,0.43
2018-09-24T16:01:30.236Z,0.50
2018-09-24T16:04:39.920Z,0.50
2018-09-24T16:07:49.432Z,0.40
2018-09-24T16:10:59.216Z,0.67
2018-09-24T16:14:08.944Z,0.50
2018-09-24T16:17:18.677Z,0.70
2018-09-24T16:20:28.234Z,0.33
2018-09-24T16:23:38.000Z,0.40
2018-09-24T16:26:48.021Z,0.50
2018-09-24T16:29:57.827Z,0.50
2018-09-24T16:33:07.693Z,0.60
2018-09-24T16:36:17.174Z,0.63
2018-09-24T16:39:27.047Z,0.60
2018-09-24T16:42:37.015Z,0.70
2018-09-24T16:45:46.829Z,0.47
2018-09-24T16:48:56.697Z,0.70
2018-09-24T16:52:06.441Z,0.70
2018-09-24T16:55:16.153Z,0.87
2018-09-24T16:58:25.940Z,0.70
2018-09-24T17:01:36.106Z,0.70
2018-09-24T17:04:45.634Z,0.50
2018-09-24T17:07:55.128Z,0.67
2018-09-24T17:11:05.114Z,0.67
2018-09-24T17:14:14.956Z,0.70
2018-09-24T17:17:24.722Z,0.60
2018-09-24T17:20:34.457Z,0.50
2018-09-24T17:23:44.149Z,0.50
2018-09-24T17:26:54.027Z,0.80
2018-09-24T17:30:03.995Z,1.10
2018-09-24T17:33:13.637Z,1.20
2018-09-24T17:36:23.361Z,0.90
2018-09-24T17:39:33.199Z,0.73
2018-09-24T17:42:42.729Z,0.63
2018-09-24T17:45:52.369Z,0.63
2018-09-24T17:49:02.540Z,0.70
2018-09-24T17:52:12.267Z,1.27
2018-09-24T17:55:22.068Z,1.33
2018-09-24T17:58:31.909Z,1.30
2018-09-24T18:01:42.081Z,1.03
2018-09-24T18:04:52.134Z,0.90
2018-09-24T18:08:01.685Z,1.03
2018-09-24T18:11:11.295Z,0.97
2018-09-24T18:14:20.861Z,1.03
2018-09-24T18:17:31.012Z,1.33
2018-09-24T18:20:40.399Z,1.40
2018-09-24T18:23:49.851Z,2.23
2018-09-24T18:26:59.603Z,1.80
2018-09-24T18:30:09.548Z,1.70
2018-09-24T18:33:19.691Z,1.80
2018-09-24T18:36:29.652Z,1.50
2018-09-24T18:39:39.787Z,1.40
2018-09-24T18:42:49.731Z,1.73
2018-09-24T18:45:59.617Z,1.27
2018-09-24T18:49:09.521Z,1.20
2018-09-24T18:52:19.366Z,1.00
2018-09-24T18:55:28.858Z,1.00
2018-09-24T18:58:38.595Z,1.42
2018-09-24T19:01:48.429Z,1.40
2018-09-24T19:05:05.300Z,1.20
2018-09-24T19:08:15.316Z,1.40
2018-09-24T19:11:27.967Z,1.20
2018-09-24T19:14:40.767Z,1.47
2018-09-24T19:17:52.178Z,1.30
2018-09-24T19:21:05.593Z,1.60
2018-09-24T19:24:15.785Z,1.97
2018-09-24T19:27:25.965Z,1.33
2018-09-24T19:30:43.454Z,1.40
2018-09-24T19:33:55.279Z,1.33
2018-09-24T19:37:05.331Z,1.23
2018-09-24T19:40:15.531Z,1.43
2018-09-24T19:43:26.305Z,1.43
2018-09-24T19:46:35.941Z,1.10
2018-09-24T19:49:46.114Z,1.03
2018-09-24T19:52:55.936Z,0.90
2018-09-24T19:56:05.799Z,1.10
2018-09-24T19:59:15.639Z,1.30
2018-09-24T20:02:25.218Z,1.23
2018-09-24T20:05:35.187Z,1.13
2018-09-24T20:08:47.122Z,0.88
2018-09-24T20:11:56.857Z,1.17
2018-09-24T20:15:06.483Z,0.90
2018-09-24T20:18:16.432Z,1.33
2018-09-24T20:21:26.395Z,1.27
2018-09-24T20:24:35.899Z,0.83
2018-09-24T20:27:45.334Z,1.40
2018-09-24T20:30:55.669Z,1.20
2018-09-24T20:34:06.500Z,1.27
2018-09-24T20:37:16.574Z,1.43
2018-09-24T20:40:26.132Z,1.30
2018-09-24T20:43:35.599Z,1.70
2018-09-24T20:46:45.461Z,1.43
2018-09-24T20:49:55.005Z,1.50
2018-09-24T20:53:05.968Z,2.13
2018-09-24T20:56:16.818Z,2.60
2018-09-24T20:59:30.132Z,3.07
2018-09-24T21:02:41.866Z,2.03
2018-09-24T21:05:52.682Z,1.10
2018-09-24T21:09:03.392Z,1.35
2018-09-24T21:12:18.355Z,1.03
2018-09-24T21:15:28.315Z,0.80
2018-09-24T21:18:38.320Z,0.77
2018-09-24T21:21:48.066Z,0.80
2018-09-24T21:24:57.769Z,0.90
2018-09-24T21:28:07.215Z,0.90
2018-09-24T21:31:16.859Z,0.93
2018-09-24T21:34:26.456Z,0.80
2018-09-24T21:37:36.024Z,0.90
2018-09-24T21:40:45.633Z,1.03
2018-09-24T21:43:55.371Z,1.10
2018-09-24T21:47:05.164Z,0.90
2018-09-24T21:50:14.933Z,1.00
2018-09-24T21:53:24.600Z,0.90
2018-09-24T21:56:34.526Z,0.90
2018-09-24T21:59:44.081Z,1.10
2018-09-24T22:02:53.798Z,1.37
2018-09-24T22:06:11.236Z,1.00
2018-09-24T22:09:20.898Z,1.00
2018-09-24T22:12:30.525Z,1.27
2018-09-24T22:15:40.222Z,0.90
2018-09-24T22:18:49.751Z,0.93
2018-09-24T22:21:59.291Z,0.80
2018-09-24T22:25:08.798Z,0.87
2018-09-24T22:28:18.710Z,1.03
2018-09-24T22:31:28.392Z,0.70
2018-09-24T22:34:37.907Z,0.73
2018-09-24T22:37:47.380Z,0.72
2018-09-24T22:40:56.860Z,1.00
2018-09-24T22:44:06.553Z,1.10
2018-09-24T22:47:16.040Z,0.90
2018-09-24T22:50:25.838Z,1.20
2018-09-24T22:53:35.363Z,1.00
2018-09-24T22:56:45.160Z,0.70
2018-09-24T22:59:54.823Z,0.80
2018-09-24T23:03:04.544Z,0.97
2018-09-24T23:06:14.769Z,1.27
2018-09-24T23:09:24.260Z,1.00
2018-09-24T23:12:33.968Z,1.20
2018-09-24T23:15:43.656Z,0.97
2018-09-24T23:18:53.206Z,1.20
2018-09-24T23:22:02.681Z,1.17
2018-09-24T23:25:12.256Z,0.80
2018-09-24T23:28:21.923Z,0.80
2018-09-24T23:31:31.539Z,1.10
2018-09-24T23:34:41.431Z,0.87
2018-09-24T23:37:50.936Z,1.40
2018-09-24T23:41:00.615Z,1.07
2018-09-24T23:44:10.113Z,1.10
2018-09-24T23:47:19.904Z,1.40
2018-09-24T23:50:29.415Z,1.30
2018-09-24T23:53:39.104Z,1.13
2018-09-24T23:56:48.564Z,1.20
2018-09-24T23:59:57.996Z,0.97
